createdAt,value
2017-11-22T00:00:47.328Z,33.80
2017-11-22T00:01:47.355Z,37.30
2017-11-22T00:02:47.382Z,34.90
2017-11-22T00:03:47.410Z,35.70
2017-11-22T00:04:47.434Z,36.50
2017-11-22T00:05:47.461Z,34.90
2017-11-22T00:06:47.488Z,37.20
2017-11-22T00:07:47.515Z,31.80
2017-11-22T00:08:47.541Z,38.70
2017-11-22T00:09:47.568Z,33.00
2017-11-22T00:10:47.597Z,26.50
2017-11-22T00:11:47.622Z,36.30
2017-11-22T00:12:47.649Z,35.40
2017-11-22T00:13:47.676Z,32.90
2017-11-22T00:14:47.702Z,43.60
2017-11-22T00:15:47.729Z,48.40
2017-11-22T00:16:47.755Z,39.00
2017-11-22T00:17:47.782Z,38.10
2017-11-22T00:18:47.810Z,35.10
2017-11-22T00:19:47.835Z,35.40
2017-11-22T00:20:47.862Z,40.90
2017-11-22T00:21:47.889Z,34.40
2017-11-22T00:22:47.915Z,37.30
2017-11-22T00:23:47.942Z,40.20
2017-11-22T00:24:47.968Z,39.50
2017-11-22T00:25:47.995Z,38.30
2017-11-22T00:26:48.022Z,39.10
2017-11-22T00:27:48.049Z,34.40
2017-11-22T00:28:48.077Z,36.40
2017-11-22T00:29:48.102Z,31.80
2017-11-22T00:30:48.129Z,35.70
2017-11-22T00:31:48.155Z,35.50
2017-11-22T00:32:48.183Z,36.10
2017-11-22T00:33:48.210Z,39.70
2017-11-22T00:34:48.237Z,36.30
2017-11-22T00:35:48.263Z,40.10
2017-11-22T00:36:48.290Z,39.70
2017-11-22T00:37:48.316Z,39.40
2017-11-22T00:38:48.346Z,45.40
2017-11-22T00:39:48.369Z,40.80
2017-11-22T00:40:48.397Z,43.80
2017-11-22T00:41:48.423Z,44.20
2017-11-22T00:42:48.451Z,44.20
2017-11-22T00:43:48.477Z,45.10
2017-11-22T00:44:48.502Z,42.90
2017-11-22T00:45:48.532Z,40.20
2017-11-22T00:46:48.558Z,33.80
2017-11-22T00:47:48.584Z,35.70
2017-11-22T00:48:48.610Z,44.00
2017-11-22T00:49:48.638Z,35.20
2017-11-22T00:50:48.664Z,39.80
2017-11-22T00:51:48.690Z,38.70
2017-11-22T00:52:48.716Z,33.30
2017-11-22T00:53:48.744Z,32.50
2017-11-22T00:54:48.771Z,33.80
2017-11-22T00:55:48.797Z,38.50
2017-11-22T00:56:48.823Z,34.60
2017-11-22T00:57:48.850Z,33.10
2017-11-22T00:58:48.877Z,31.70
2017-11-22T00:59:48.903Z,32.90
2017-11-22T01:00:48.930Z,33.80
2017-11-22T01:01:48.956Z,32.80
2017-11-22T01:02:48.984Z,35.40
2017-11-22T01:03:49.010Z,41.30
2017-11-22T01:04:49.038Z,42.80
2017-11-22T01:05:49.064Z,34.30
2017-11-22T01:06:49.089Z,45.30
2017-11-22T01:07:49.117Z,49.20
2017-11-22T01:08:49.143Z,38.70
2017-11-22T01:09:49.170Z,36.00
2017-11-22T01:10:49.197Z,37.20
2017-11-22T01:11:49.228Z,39.20
2017-11-22T01:12:49.249Z,34.30
2017-11-22T01:13:49.277Z,37.50
2017-11-22T01:14:49.305Z,36.00
2017-11-22T01:15:49.330Z,33.40
2017-11-22T01:16:49.358Z,30.90
2017-11-22T01:17:49.383Z,28.90
2017-11-22T01:18:49.410Z,29.70
2017-11-22T01:19:49.439Z,33.60
2017-11-22T01:20:49.464Z,27.50
2017-11-22T01:21:49.490Z,30.40
2017-11-22T01:22:49.518Z,37.10
2017-11-22T01:23:49.543Z,36.30
2017-11-22T01:24:49.570Z,34.90
2017-11-22T01:25:49.598Z,29.70
2017-11-22T01:26:49.625Z,29.80
2017-11-22T01:27:49.654Z,31.70
2017-11-22T01:28:49.678Z,30.60
2017-11-22T01:29:49.705Z,37.50
2017-11-22T01:30:49.732Z,28.20
2017-11-22T01:31:49.757Z,28.00
2017-11-22T01:32:49.784Z,33.70
2017-11-22T01:33:49.812Z,27.30
2017-11-22T01:34:49.838Z,33.00
2017-11-22T01:35:49.867Z,24.10
2017-11-22T01:36:49.892Z,28.40
2017-11-22T01:37:49.920Z,30.10
2017-11-22T01:38:49.946Z,40.80
2017-11-22T01:39:49.973Z,24.80
2017-11-22T01:40:50.000Z,23.70
2017-11-22T01:41:50.026Z,25.80
2017-11-22T01:42:50.054Z,58.90
2017-11-22T01:43:50.079Z,31.20
2017-11-22T01:44:50.105Z,29.00
2017-11-22T01:45:50.135Z,31.70
2017-11-22T01:46:50.175Z,27.60
2017-11-22T01:47:50.237Z,32.20
2017-11-22T01:48:50.213Z,33.40
2017-11-22T01:49:50.240Z,37.90
2017-11-22T01:50:50.268Z,30.20
2017-11-22T01:51:50.292Z,32.80
2017-11-22T01:52:50.319Z,33.80
2017-11-22T01:53:50.348Z,31.60
2017-11-22T01:54:50.374Z,32.70
2017-11-22T01:55:50.399Z,22.00
2017-11-22T01:56:50.426Z,28.10
2017-11-22T01:57:50.453Z,31.00
2017-11-22T01:58:50.481Z,35.90
2017-11-22T01:59:50.508Z,29.70
2017-11-22T02:00:50.534Z,26.60
2017-11-22T02:01:50.562Z,30.30
2017-11-22T02:02:50.589Z,28.30
2017-11-22T02:03:50.614Z,26.90
2017-11-22T02:04:50.640Z,32.70
2017-11-22T02:05:50.677Z,29.00
2017-11-22T02:06:50.695Z,27.20
2017-11-22T02:07:50.722Z,25.20
2017-11-22T02:08:50.749Z,34.50
2017-11-22T02:09:50.776Z,23.40
2017-11-22T02:10:50.802Z,29.40
2017-11-22T02:11:50.830Z,36.30
2017-11-22T02:12:50.855Z,34.10
2017-11-22T02:13:50.883Z,28.20
2017-11-22T02:14:50.909Z,26.30
2017-11-22T02:15:50.937Z,29.50
2017-11-22T02:16:50.975Z,34.60
2017-11-22T02:17:50.989Z,32.20
2017-11-22T02:18:51.018Z,25.00
2017-11-22T02:19:51.044Z,32.30
2017-11-22T02:20:51.071Z,23.20
2017-11-22T02:21:51.098Z,25.50
2017-11-22T02:22:51.124Z,23.00
2017-11-22T02:23:51.156Z,31.70
2017-11-22T02:24:51.177Z,27.80
2017-11-22T02:25:51.207Z,29.10
2017-11-22T02:26:51.245Z,27.40
2017-11-22T02:27:51.257Z,29.20
2017-11-22T02:28:51.284Z,20.60
2017-11-22T02:29:51.314Z,24.40
2017-11-22T02:30:51.340Z,26.00
2017-11-22T02:31:51.366Z,32.50
2017-11-22T02:32:51.395Z,24.40
2017-11-22T02:33:51.418Z,29.30
2017-11-22T02:34:51.445Z,28.20
2017-11-22T02:35:51.473Z,31.60
2017-11-22T02:36:51.500Z,24.30
2017-11-22T02:37:51.527Z,22.90
2017-11-22T02:38:51.553Z,26.80
2017-11-22T02:39:51.579Z,20.10
2017-11-22T02:40:51.608Z,20.40
2017-11-22T02:41:51.639Z,19.00
2017-11-22T02:42:51.663Z,22.10
2017-11-22T02:43:51.686Z,32.00
2017-11-22T02:44:51.714Z,26.30
2017-11-22T02:45:51.740Z,29.20
2017-11-22T02:46:51.768Z,21.40
2017-11-22T02:47:51.792Z,25.60
2017-11-22T02:48:51.825Z,25.90
2017-11-22T02:49:51.847Z,28.30
2017-11-22T02:50:51.874Z,29.70
2017-11-22T02:51:51.901Z,35.20
2017-11-22T02:52:51.926Z,37.40
2017-11-22T02:53:51.954Z,30.60
2017-11-22T02:54:51.981Z,25.50
2017-11-22T02:55:52.008Z,29.60
2017-11-22T02:56:52.033Z,26.00
2017-11-22T02:57:52.060Z,24.10
2017-11-22T02:58:52.088Z,20.70
2017-11-22T02:59:52.114Z,25.30
2017-11-22T03:00:52.139Z,26.40
2017-11-22T03:01:52.167Z,42.60
2017-11-22T03:02:52.193Z,33.80
2017-11-22T03:03:52.220Z,24.50
2017-11-22T03:04:52.246Z,34.10
2017-11-22T03:05:52.275Z,25.00
2017-11-22T03:06:52.299Z,43.80
2017-11-22T03:07:52.326Z,33.70
2017-11-22T03:08:52.352Z,40.80
2017-11-22T03:09:52.379Z,27.70
2017-11-22T03:10:52.408Z,29.00
2017-11-22T03:11:52.433Z,29.00
2017-11-22T03:12:52.459Z,31.30
2017-11-22T03:13:52.487Z,26.50
2017-11-22T03:14:52.512Z,27.70
2017-11-22T03:15:52.540Z,26.00
2017-11-22T03:16:52.565Z,25.10
2017-11-22T03:17:52.593Z,29.30
2017-11-22T03:18:52.620Z,23.90
2017-11-22T03:19:52.646Z,27.40
2017-11-22T03:20:52.673Z,20.80
2017-11-22T03:21:52.700Z,20.90
2017-11-22T03:22:52.727Z,20.70
2017-11-22T03:23:52.752Z,22.60
2017-11-22T03:24:52.780Z,26.70
2017-11-22T03:25:52.807Z,23.30
2017-11-22T03:26:52.834Z,19.50
2017-11-22T03:27:52.866Z,21.60
2017-11-22T03:28:52.886Z,25.30
2017-11-22T03:29:52.913Z,20.00
2017-11-22T03:30:52.942Z,24.80
2017-11-22T03:31:52.966Z,19.30
2017-11-22T03:32:52.992Z,18.20
2017-11-22T03:33:53.020Z,20.20
2017-11-22T03:34:53.046Z,22.90
2017-11-22T03:35:53.075Z,24.40
2017-11-22T03:36:53.098Z,28.80
2017-11-22T03:37:53.125Z,20.20
2017-11-22T03:38:53.156Z,22.80
2017-11-22T03:39:53.177Z,22.50
2017-11-22T03:40:53.206Z,24.70
2017-11-22T03:41:53.233Z,17.60
2017-11-22T03:42:53.259Z,25.40
2017-11-22T03:43:53.285Z,30.00
2017-11-22T03:44:53.311Z,28.90
2017-11-22T03:45:53.338Z,34.00
2017-11-22T03:46:53.364Z,22.10
2017-11-22T03:47:53.392Z,23.70
2017-11-22T03:48:53.418Z,16.80
2017-11-22T03:49:53.445Z,19.10
2017-11-22T03:50:53.472Z,24.10
2017-11-22T03:51:53.497Z,25.10
2017-11-22T03:52:53.525Z,35.50
2017-11-22T03:53:53.552Z,23.30
2017-11-22T03:54:53.584Z,25.60
2017-11-22T03:55:53.605Z,20.30
2017-11-22T03:56:53.631Z,20.90
2017-11-22T03:57:53.658Z,23.90
2017-11-22T03:58:53.685Z,20.90
2017-11-22T03:59:53.711Z,24.40
2017-11-22T04:00:53.738Z,23.50
2017-11-22T04:01:53.766Z,17.90
2017-11-22T04:02:53.792Z,20.30
2017-11-22T04:03:53.822Z,17.10
2017-11-22T04:04:53.847Z,24.80
2017-11-22T04:05:53.873Z,24.50
2017-11-22T04:06:53.900Z,23.10
2017-11-22T04:07:53.923Z,25.30
2017-11-22T04:08:53.951Z,22.80
2017-11-22T04:09:53.977Z,24.10
2017-11-22T04:10:54.004Z,19.10
2017-11-22T04:11:54.031Z,19.20
2017-11-22T04:12:54.056Z,31.30
2017-11-22T04:13:54.089Z,22.80
2017-11-22T04:14:54.111Z,22.70
2017-11-22T04:15:54.137Z,23.10
2017-11-22T04:16:54.164Z,24.20
2017-11-22T04:17:54.190Z,21.50
2017-11-22T04:18:54.218Z,25.60
2017-11-22T04:19:54.243Z,21.20
2017-11-22T04:20:54.269Z,23.30
2017-11-22T04:21:54.297Z,12.00
2017-11-22T04:22:54.322Z,21.00
2017-11-22T04:23:54.349Z,26.60
2017-11-22T04:24:54.376Z,28.70
2017-11-22T04:25:54.403Z,17.10
2017-11-22T04:26:54.429Z,15.20
2017-11-22T04:27:54.454Z,16.10
2017-11-22T04:28:54.481Z,19.30
2017-11-22T04:29:54.509Z,14.30
2017-11-22T04:30:54.536Z,18.20
2017-11-22T04:31:54.562Z,17.40
2017-11-22T04:32:54.588Z,14.30
2017-11-22T04:33:54.616Z,14.90
2017-11-22T04:34:54.642Z,15.40
2017-11-22T04:35:54.668Z,22.10
2017-11-22T04:36:54.699Z,18.60
2017-11-22T04:37:54.723Z,16.70
2017-11-22T04:38:54.750Z,19.00
2017-11-22T04:39:54.775Z,19.10
2017-11-22T04:40:54.804Z,20.50
2017-11-22T04:41:54.829Z,16.90
2017-11-22T04:42:54.856Z,13.20
2017-11-22T04:43:54.881Z,18.00
2017-11-22T04:44:54.907Z,14.20
2017-11-22T04:45:54.935Z,12.70
2017-11-22T04:46:54.961Z,14.30
2017-11-22T04:47:54.987Z,17.00
2017-11-22T04:48:55.013Z,10.90
2017-11-22T04:49:55.040Z,19.90
2017-11-22T04:50:55.068Z,15.90
2017-11-22T04:51:55.093Z,13.20
2017-11-22T04:52:55.120Z,29.90
2017-11-22T04:53:55.147Z,22.50
2017-11-22T04:54:55.173Z,24.20
2017-11-22T04:55:55.199Z,15.70
2017-11-22T04:56:55.226Z,14.70
2017-11-22T04:57:55.252Z,23.30
2017-11-22T04:58:55.280Z,24.10
2017-11-22T04:59:55.309Z,25.50
2017-11-22T05:00:55.332Z,21.30
2017-11-22T05:01:55.357Z,17.40
2017-11-22T05:02:55.386Z,19.60
2017-11-22T05:03:55.412Z,16.20
2017-11-22T05:04:55.438Z,15.50
2017-11-22T05:05:55.465Z,17.80
2017-11-22T05:06:55.492Z,20.10
2017-11-22T05:07:55.517Z,19.30
2017-11-22T05:08:55.544Z,17.60
2017-11-22T05:09:55.573Z,21.30
2017-11-22T05:10:55.598Z,19.80
2017-11-22T05:11:55.624Z,11.90
2017-11-22T05:12:55.650Z,13.60
2017-11-22T05:13:55.678Z,12.90
2017-11-22T05:14:55.704Z,13.40
2017-11-22T05:15:55.729Z,11.70
2017-11-22T05:16:55.756Z,15.50
2017-11-22T05:17:55.783Z,22.70
2017-11-22T05:18:55.809Z,39.70
2017-11-22T05:19:55.840Z,24.90
2017-11-22T05:20:55.861Z,21.40
2017-11-22T05:21:55.890Z,15.50
2017-11-22T05:22:55.916Z,13.20
2017-11-22T05:23:55.942Z,16.60
2017-11-22T05:24:55.968Z,23.40
2017-11-22T05:25:55.996Z,30.80
2017-11-22T05:26:56.021Z,16.20
2017-11-22T05:27:56.047Z,16.30
2017-11-22T05:28:56.074Z,17.80
2017-11-22T05:29:56.102Z,11.50
2017-11-22T05:30:56.127Z,18.30
2017-11-22T05:31:56.153Z,15.60
2017-11-22T05:32:56.180Z,18.90
2017-11-22T05:33:56.206Z,21.10
2017-11-22T05:34:56.234Z,14.30
2017-11-22T05:35:56.259Z,18.00
2017-11-22T05:36:56.287Z,16.70
2017-11-22T05:37:56.313Z,18.90
2017-11-22T05:38:56.340Z,21.00
2017-11-22T05:39:56.369Z,19.40
2017-11-22T05:40:56.394Z,20.80
2017-11-22T05:41:56.419Z,18.00
2017-11-22T05:42:56.446Z,15.70
2017-11-22T05:43:56.471Z,24.80
2017-11-22T05:44:56.497Z,10.40
2017-11-22T05:45:56.529Z,20.20
2017-11-22T05:46:56.551Z,19.60
2017-11-22T05:47:56.577Z,24.00
2017-11-22T05:48:56.603Z,22.30
2017-11-22T05:49:56.629Z,30.80
2017-11-22T05:50:56.656Z,19.20
2017-11-22T05:51:56.681Z,31.10
2017-11-22T05:52:56.708Z,27.50
2017-11-22T05:53:56.735Z,34.30
2017-11-22T05:54:56.761Z,33.70
2017-11-22T05:55:56.787Z,21.40
2017-11-22T05:56:56.814Z,33.90
2017-11-22T05:57:56.840Z,21.30
2017-11-22T05:58:56.866Z,23.90
2017-11-22T05:59:56.892Z,21.50
2017-11-22T06:00:56.918Z,24.50
2017-11-22T06:01:56.949Z,24.10
2017-11-22T06:02:56.972Z,17.80
2017-11-22T06:03:56.998Z,20.50
2017-11-22T06:04:57.024Z,21.30
2017-11-22T06:05:57.051Z,22.10
2017-11-22T06:06:57.080Z,26.00
2017-11-22T06:07:57.103Z,27.00
2017-11-22T06:08:57.133Z,26.20
2017-11-22T06:09:57.155Z,17.40
2017-11-22T06:10:57.189Z,24.30
2017-11-22T06:11:57.207Z,29.30
2017-11-22T06:12:57.235Z,37.40
2017-11-22T06:13:57.263Z,25.80
2017-11-22T06:14:57.285Z,22.00
2017-11-22T06:15:57.313Z,29.60
2017-11-22T06:16:57.339Z,22.60
2017-11-22T06:17:57.365Z,24.30
2017-11-22T06:18:57.393Z,34.70
2017-11-22T06:19:57.417Z,26.50
2017-11-22T06:20:57.444Z,30.40
2017-11-22T06:21:57.470Z,22.50
2017-11-22T06:22:57.496Z,20.70
2017-11-22T06:23:57.522Z,32.80
2017-11-22T06:24:57.552Z,25.80
2017-11-22T06:25:57.575Z,23.60
2017-11-22T06:26:57.602Z,23.20
2017-11-22T06:27:57.626Z,24.40
2017-11-22T06:28:57.653Z,22.10
2017-11-22T06:29:57.679Z,28.80
2017-11-22T06:30:57.706Z,29.30
2017-11-22T06:31:57.731Z,24.20
2017-11-22T06:32:57.759Z,26.20
2017-11-22T06:33:57.783Z,23.40
2017-11-22T06:34:57.811Z,27.50
2017-11-22T06:35:57.834Z,31.90
2017-11-22T06:36:57.862Z,26.90
2017-11-22T06:37:57.889Z,26.20
2017-11-22T06:38:57.915Z,29.20
2017-11-22T06:39:57.940Z,27.40
2017-11-22T06:40:57.967Z,31.30
2017-11-22T06:41:57.995Z,31.00
2017-11-22T06:42:58.019Z,22.90
2017-11-22T06:43:58.045Z,23.60
2017-11-22T06:44:58.071Z,25.70
2017-11-22T06:45:58.098Z,23.30
2017-11-22T06:46:58.123Z,20.00
2017-11-22T06:47:58.149Z,18.40
2017-11-22T06:48:58.178Z,23.30
2017-11-22T06:49:58.201Z,18.30
2017-11-22T06:50:58.228Z,25.80
2017-11-22T06:51:58.253Z,19.10
2017-11-22T06:52:58.281Z,24.20
2017-11-22T06:53:58.307Z,18.60
2017-11-22T06:54:58.333Z,18.40
2017-11-22T06:55:58.359Z,15.40
2017-11-22T06:56:58.386Z,14.50
2017-11-22T06:57:58.414Z,27.40
2017-11-22T06:58:58.439Z,19.80
2017-11-22T06:59:58.468Z,22.70
2017-11-22T07:00:58.490Z,21.10
2017-11-22T07:01:58.526Z,29.80
2017-11-22T07:02:58.543Z,51.90
2017-11-22T07:03:58.587Z,36.30
2017-11-22T07:04:58.595Z,39.70
2017-11-22T07:05:58.622Z,15.30
2017-11-22T07:06:58.652Z,17.50
2017-11-22T07:07:58.675Z,23.40
2017-11-22T07:08:58.699Z,28.20
2017-11-22T07:09:58.727Z,24.30
2017-11-22T07:10:58.754Z,17.60
2017-11-22T07:11:58.779Z,23.10
2017-11-22T07:12:58.806Z,27.60
2017-11-22T07:13:58.836Z,25.70
2017-11-22T07:14:58.860Z,28.70
2017-11-22T07:15:58.884Z,25.50
2017-11-22T07:16:58.912Z,27.80
2017-11-22T07:17:58.946Z,20.00
2017-11-22T07:18:58.965Z,39.70
2017-11-22T07:19:58.990Z,64.00
2017-11-22T07:20:59.017Z,44.60
2017-11-22T07:21:59.053Z,43.50
2017-11-22T07:22:59.071Z,58.10
2017-11-22T07:23:59.097Z,29.90
2017-11-22T07:24:59.124Z,30.50
2017-11-22T07:25:59.151Z,51.50
2017-11-22T07:26:59.185Z,42.20
2017-11-22T07:27:59.205Z,36.00
2017-11-22T07:28:59.242Z,36.20
2017-11-22T07:29:59.257Z,37.60
2017-11-22T07:30:59.290Z,36.60
2017-11-22T07:31:59.309Z,28.70
2017-11-22T07:32:59.338Z,39.00
2017-11-22T07:33:59.364Z,40.40
2017-11-22T07:34:59.391Z,42.50
2017-11-22T07:35:59.418Z,39.10
2017-11-22T07:36:59.443Z,46.30
2017-11-22T07:37:59.472Z,32.10
2017-11-22T07:38:59.499Z,35.30
2017-11-22T07:39:59.525Z,29.70
2017-11-22T07:40:59.551Z,29.90
2017-11-22T07:41:59.578Z,26.00
2017-11-22T07:42:59.606Z,32.20
2017-11-22T07:43:59.633Z,32.70
2017-11-22T07:44:59.666Z,52.20
2017-11-22T07:45:59.689Z,47.70
2017-11-22T07:46:59.716Z,30.90
2017-11-22T07:47:59.743Z,27.70
2017-11-22T07:48:59.770Z,25.90
2017-11-22T07:49:59.800Z,41.70
2017-11-22T07:50:59.827Z,41.30
2017-11-22T07:51:59.855Z,30.60
2017-11-22T07:52:59.882Z,37.60
2017-11-22T07:53:59.910Z,30.00
2017-11-22T07:54:59.939Z,24.70
2017-11-22T07:55:59.966Z,24.00
2017-11-22T07:56:59.994Z,28.20
2017-11-22T07:58:00.023Z,31.00
2017-11-22T07:59:00.051Z,31.00
2017-11-22T08:00:00.080Z,29.90
2017-11-22T08:01:00.108Z,31.80
2017-11-22T08:02:00.138Z,24.40
2017-11-22T08:03:00.166Z,29.80
2017-11-22T08:04:00.194Z,21.80
2017-11-22T08:05:00.228Z,23.90
2017-11-22T08:06:00.258Z,32.70
2017-11-22T08:07:00.283Z,32.70
2017-11-22T08:08:00.310Z,30.00
2017-11-22T08:09:00.342Z,31.60
2017-11-22T08:10:00.372Z,31.50
2017-11-22T08:11:00.408Z,35.30
2017-11-22T08:12:00.431Z,38.30
2017-11-22T08:13:00.463Z,37.70
2017-11-22T08:14:00.500Z,37.30
2017-11-22T08:15:00.526Z,24.30
2017-11-22T08:16:00.560Z,43.10
2017-11-22T08:17:00.587Z,63.30
2017-11-22T08:18:00.617Z,62.30
2017-11-22T08:19:00.651Z,49.70
2017-11-22T08:20:00.681Z,50.90
2017-11-22T08:21:00.714Z,46.60
2017-11-22T08:22:00.749Z,51.90
2017-11-22T08:23:00.778Z,41.00
2017-11-22T08:24:00.810Z,46.00
2017-11-22T08:25:00.842Z,58.00
2017-11-22T08:26:00.876Z,71.50
2017-11-22T08:27:00.915Z,69.00
2017-11-22T08:28:00.936Z,45.40
2017-11-22T08:29:00.971Z,45.30
2017-11-22T08:30:01.103Z,54.70
2017-11-22T08:31:01.035Z,46.80
2017-11-22T08:32:01.072Z,41.00
2017-11-22T08:33:01.100Z,39.60
2017-11-22T08:34:01.131Z,38.80
2017-11-22T08:35:01.169Z,37.90
2017-11-22T08:36:01.198Z,41.70
2017-11-22T08:37:01.232Z,29.30
2017-11-22T08:38:01.266Z,33.20
2017-11-22T08:39:01.300Z,28.70
2017-11-22T08:40:01.331Z,34.50
2017-11-22T08:41:01.367Z,29.30
2017-11-22T08:42:01.401Z,32.20
2017-11-22T08:43:01.434Z,28.10
2017-11-22T08:44:01.600Z,24.00
2017-11-22T08:45:01.502Z,31.00
2017-11-22T08:46:01.539Z,30.90
2017-11-22T08:47:01.572Z,30.30
2017-11-22T08:48:01.607Z,24.10
2017-11-22T08:49:01.647Z,22.80
2017-11-22T08:50:01.678Z,28.70
2017-11-22T08:51:01.715Z,22.10
2017-11-22T08:52:01.751Z,22.70
2017-11-22T08:53:01.786Z,22.00
2017-11-22T08:54:01.823Z,22.50
2017-11-22T08:55:01.866Z,21.00
2017-11-22T08:56:01.918Z,24.80
2017-11-22T08:57:01.934Z,24.10
2017-11-22T08:58:01.970Z,22.50
2017-11-22T08:59:02.008Z,32.50
2017-11-22T09:00:02.046Z,19.20
2017-11-22T09:01:02.082Z,18.90
2017-11-22T09:02:02.122Z,18.60
2017-11-22T09:03:02.158Z,17.60
2017-11-22T09:04:02.197Z,18.70
2017-11-22T09:05:02.235Z,19.80
2017-11-22T09:06:02.273Z,20.70
2017-11-22T09:07:02.312Z,16.30
2017-11-22T09:08:02.351Z,24.20
2017-11-22T09:09:02.391Z,25.10
2017-11-22T09:10:02.429Z,21.30
2017-11-22T09:11:02.469Z,16.80
2017-11-22T09:12:02.508Z,23.80
2017-11-22T09:13:02.547Z,17.70
2017-11-22T09:14:02.597Z,17.20
2017-11-22T09:15:02.627Z,23.40
2017-11-22T09:16:02.667Z,17.00
2017-11-22T09:17:02.707Z,26.20
2017-11-22T09:18:02.748Z,16.90
2017-11-22T09:19:02.788Z,18.00
2017-11-22T09:20:02.830Z,16.70
2017-11-22T09:21:02.870Z,12.60
2017-11-22T09:22:02.911Z,24.40
2017-11-22T09:23:02.953Z,15.10
2017-11-22T09:24:02.993Z,14.20
2017-11-22T09:25:03.035Z,15.90
2017-11-22T09:26:03.076Z,16.80
2017-11-22T09:27:03.120Z,13.90
2017-11-22T09:28:03.160Z,18.60
2017-11-22T09:29:03.205Z,12.30
2017-11-22T09:30:03.243Z,20.90
2017-11-22T09:31:03.287Z,16.10
2017-11-22T09:32:03.327Z,11.30
2017-11-22T09:33:03.369Z,18.10
2017-11-22T09:34:03.412Z,12.90
2017-11-22T09:35:03.487Z,10.70
2017-11-22T09:36:03.508Z,15.10
2017-11-22T09:37:03.543Z,11.30
2017-11-22T09:38:03.578Z,20.30
2017-11-22T09:39:03.637Z,11.50
2017-11-22T09:40:03.688Z,13.40
2017-11-22T09:41:03.721Z,12.40
2017-11-22T09:42:03.771Z,18.10
2017-11-22T09:43:03.809Z,17.10
2017-11-22T09:44:03.828Z,9.90
2017-11-22T09:45:03.871Z,13.90
2017-11-22T09:46:03.917Z,15.80
2017-11-22T09:47:03.954Z,13.40
2017-11-22T09:48:03.997Z,9.70
2017-11-22T09:49:04.038Z,12.70
2017-11-22T09:50:04.081Z,19.50
2017-11-22T09:51:04.122Z,13.00
2017-11-22T09:52:04.165Z,6.80
2017-11-22T09:53:04.208Z,11.40
2017-11-22T09:54:04.250Z,12.70
2017-11-22T09:55:04.294Z,11.30
2017-11-22T09:56:04.338Z,9.30
2017-11-22T09:57:04.380Z,7.10
2017-11-22T09:58:04.423Z,10.90
2017-11-22T09:59:04.467Z,10.70
2017-11-22T10:00:04.510Z,10.70
2017-11-22T10:01:04.557Z,12.50
2017-11-22T10:02:04.598Z,11.70
2017-11-22T10:03:04.642Z,11.10
2017-11-22T10:04:04.687Z,14.90
2017-11-22T10:05:04.731Z,4.00
2017-11-22T10:06:04.777Z,14.40
2017-11-22T10:07:04.821Z,13.10
2017-11-22T10:08:04.867Z,11.10
2017-11-22T10:09:04.912Z,10.30
2017-11-22T10:10:04.958Z,14.10
2017-11-22T10:11:05.002Z,9.40
2017-11-22T10:12:05.050Z,10.40
2017-11-22T10:13:05.097Z,7.80
2017-11-22T10:14:05.141Z,8.20
2017-11-22T10:15:05.187Z,9.60
2017-11-22T10:16:05.239Z,10.00
2017-11-22T10:17:05.295Z,8.30
2017-11-22T10:18:05.329Z,12.80
2017-11-22T10:19:05.377Z,4.10
2017-11-22T10:20:05.422Z,6.70
2017-11-22T10:21:05.471Z,8.90
2017-11-22T10:22:05.538Z,11.10
2017-11-22T10:23:05.566Z,11.00
2017-11-22T10:24:05.612Z,9.90
2017-11-22T10:25:05.660Z,8.70
2017-11-22T10:26:05.708Z,9.20
2017-11-22T10:27:05.755Z,8.10
2017-11-22T10:28:05.803Z,8.50
2017-11-22T10:29:05.851Z,6.50
2017-11-22T10:30:05.899Z,7.00
2017-11-22T10:31:05.946Z,8.50
2017-11-22T10:32:05.996Z,11.40
2017-11-22T10:33:06.046Z,9.90
2017-11-22T10:34:06.094Z,7.50
2017-11-22T10:35:06.154Z,7.60
2017-11-22T10:36:06.189Z,8.30
2017-11-22T10:37:06.240Z,9.90
2017-11-22T10:38:06.287Z,7.30
2017-11-22T10:39:06.337Z,8.40
2017-11-22T10:40:06.391Z,4.50
2017-11-22T10:41:06.437Z,10.20
2017-11-22T10:42:06.487Z,8.30
2017-11-22T10:43:06.537Z,7.00
2017-11-22T10:44:06.587Z,7.40
2017-11-22T10:45:06.641Z,6.70
2017-11-22T10:46:06.687Z,5.00
2017-11-22T10:47:06.740Z,7.70
2017-11-22T10:48:06.787Z,7.60
2017-11-22T10:49:06.837Z,9.50
2017-11-22T10:50:06.889Z,4.70
2017-11-22T10:51:06.939Z,3.50
2017-11-22T10:52:06.988Z,8.50
2017-11-22T10:53:07.039Z,9.70
2017-11-22T10:54:07.092Z,8.00
2017-11-22T10:55:07.141Z,10.90
2017-11-22T10:56:07.199Z,6.40
2017-11-22T10:57:07.241Z,8.20
2017-11-22T10:58:07.291Z,5.40
2017-11-22T10:59:07.344Z,13.20
2017-11-22T11:00:07.392Z,10.30
2017-11-22T11:01:07.443Z,9.30
2017-11-22T11:02:07.495Z,7.00
2017-11-22T11:03:07.544Z,7.10
2017-11-22T11:04:07.595Z,3.70
2017-11-22T11:05:07.645Z,5.40
2017-11-22T11:06:07.698Z,3.30
2017-11-22T11:07:07.747Z,10.00
2017-11-22T11:08:07.798Z,6.90
2017-11-22T11:09:07.849Z,5.40
2017-11-22T11:10:07.910Z,5.70
2017-11-22T11:11:07.950Z,7.70
2017-11-22T11:12:08.002Z,9.10
2017-11-22T11:13:08.051Z,9.10
2017-11-22T11:14:08.103Z,5.40
2017-11-22T11:15:08.153Z,6.70
2017-11-22T11:16:08.204Z,4.50
2017-11-22T11:17:08.254Z,5.20
2017-11-22T11:18:08.305Z,7.30
2017-11-22T11:19:08.358Z,4.40
2017-11-22T11:20:08.408Z,6.60
2017-11-22T11:21:08.460Z,4.70
2017-11-22T11:22:08.510Z,6.50
2017-11-22T11:23:08.570Z,4.60
2017-11-22T11:24:08.613Z,3.10
2017-11-22T11:25:08.664Z,5.80
2017-11-22T11:26:08.716Z,5.10
2017-11-22T11:27:08.768Z,6.70
2017-11-22T11:28:08.824Z,4.90
2017-11-22T11:29:08.873Z,5.00
2017-11-22T11:30:08.922Z,9.40
2017-11-22T11:31:08.975Z,6.90
2017-11-22T11:32:09.025Z,10.80
2017-11-22T11:33:09.076Z,5.70
2017-11-22T11:34:09.128Z,8.00
2017-11-22T11:35:09.181Z,8.10
2017-11-22T11:36:09.232Z,6.10
2017-11-22T11:37:09.284Z,7.40
2017-11-22T11:38:09.344Z,9.30
2017-11-22T11:39:09.388Z,6.60
2017-11-22T11:40:09.440Z,10.60
2017-11-22T11:41:09.492Z,4.40
2017-11-22T11:42:09.545Z,4.70
2017-11-22T11:43:09.597Z,5.10
2017-11-22T11:44:09.649Z,5.80
2017-11-22T11:45:09.699Z,7.70
2017-11-22T11:46:09.754Z,5.90
2017-11-22T11:47:09.807Z,6.50
2017-11-22T11:48:09.857Z,7.80
2017-11-22T11:49:09.909Z,6.30
2017-11-22T11:50:09.964Z,3.80
2017-11-22T11:51:10.016Z,5.10
2017-11-22T11:52:10.069Z,12.00
2017-11-22T11:53:10.119Z,5.90
2017-11-22T11:54:10.181Z,6.90
2017-11-22T11:55:10.225Z,8.60
2017-11-22T11:56:10.276Z,6.80
2017-11-22T11:57:10.330Z,5.90
2017-11-22T11:58:10.383Z,3.90
2017-11-22T11:59:10.434Z,5.90
2017-11-22T12:00:10.587Z,11.90
2017-11-22T12:01:10.538Z,7.30
2017-11-22T12:02:10.592Z,4.10
2017-11-22T12:03:10.645Z,7.80
2017-11-22T12:04:10.696Z,5.80
2017-11-22T12:05:10.749Z,5.00
2017-11-22T12:06:10.803Z,7.20
2017-11-22T12:07:10.855Z,3.50
2017-11-22T12:08:10.907Z,4.80
2017-11-22T12:09:10.959Z,9.90
2017-11-22T12:10:11.013Z,3.90
2017-11-22T12:11:11.116Z,6.70
2017-11-22T12:12:11.118Z,4.10
2017-11-22T12:13:11.170Z,7.50
2017-11-22T12:14:11.223Z,7.20
2017-11-22T12:15:11.275Z,4.40
2017-11-22T12:16:11.328Z,9.20
2017-11-22T12:17:11.380Z,7.50
2017-11-22T12:18:11.432Z,6.70
2017-11-22T12:19:11.484Z,5.40
2017-11-22T12:20:11.536Z,5.80
2017-11-22T12:21:11.590Z,6.30
2017-11-22T12:22:11.642Z,6.40
2017-11-22T12:23:11.694Z,6.20
2017-11-22T12:24:11.747Z,7.30
2017-11-22T12:25:11.799Z,5.10
2017-11-22T12:26:11.852Z,7.90
2017-11-22T12:27:11.905Z,11.00
2017-11-22T12:28:11.962Z,8.10
2017-11-22T12:29:12.009Z,5.10
2017-11-22T12:30:12.061Z,6.30
2017-11-22T12:31:12.113Z,6.80
2017-11-22T12:32:12.164Z,7.20
2017-11-22T12:33:12.224Z,10.10
2017-11-22T12:34:12.269Z,5.90
2017-11-22T12:35:12.322Z,8.60
2017-11-22T12:36:12.378Z,5.90
2017-11-22T12:37:12.427Z,6.50
2017-11-22T12:38:12.477Z,5.00
2017-11-22T12:39:12.532Z,6.00
2017-11-22T12:40:12.585Z,11.20
2017-11-22T12:41:12.634Z,4.30
2017-11-22T12:42:12.688Z,5.70
2017-11-22T12:43:12.740Z,6.00
2017-11-22T12:44:12.790Z,5.00
2017-11-22T12:45:12.843Z,4.90
2017-11-22T12:46:12.896Z,5.50
2017-11-22T12:47:12.950Z,4.80
2017-11-22T12:48:12.999Z,5.10
2017-11-22T12:49:13.050Z,5.70
2017-11-22T12:50:13.102Z,5.70
2017-11-22T12:51:13.153Z,6.00
2017-11-22T12:52:13.207Z,5.00
2017-11-22T12:53:13.256Z,7.10
2017-11-22T12:54:13.309Z,7.00
2017-11-22T12:55:13.360Z,5.30
2017-11-22T12:56:13.409Z,4.10
2017-11-22T12:57:13.461Z,4.50
2017-11-22T12:58:13.510Z,4.90